Witney, United Kingdom
Current Conditions -  °F | °C
As of 8:50 PM on Thursday 20 Nov 2014 (Local Time) from EGVN Reporting Station
Haze Haze  
Wind Chill: 39°   Ceiling: Unl
Heat Index: 43°   Visibility: 1.5mi
Dew Point: 41°   Wind: 7mph
Humidity: 93%   Direction: 60°ENE
Pressure: 30.24"   Gusts: NA
Location:  51.78°N, 1.49°W
Report Text: EGVN 202050Z 06006KT 2500 BR FEW018 06/05 Q1024 TEMPO 2000 SCT018 YL02
Loading
Personal Weather Stations






























Interactive Weather Map New forecast layout! Learn more

10-Day Weather Forecast

Advertisements
Track Severe Weather on mobile